Philip, SD

12:55 PM MST on February 06, 2016 (GMT -0700)
Philip | | Change Station
CLOSE
Current Station
Airport
Location: Philip,
Elevation: 2208 ft
Nearby Weather Stations
Active Advisory: High Wind Warning

Elev 2208 ft 44.05 °N, 101.60 °W | Updated 1 hour ago

Partly Cloudy
Partly Cloudy
44 °F
Feels Like 36 °F
N
17
Wind Variable Wind from SW
Gusts 25 mph

Today
High -- | Low -- °F
--% Chance of Precip.
Yesterday
High -- | Low -- °F
Precip. -- in
Pressure 29.96 in
Visibility 10.0 miles
Clouds Clear
Windchill 36 °F
Dew Point 28 °F
Humidity 53%
Rainfall 0.00 in
Snow Depth Not available.
6:58 AM 5:03 PM
Waning Crescent, 4% visible
METAR KPHP 061855Z AUTO 23015G22KT 10SM CLR 07/M02 A2991 RMK AO2 SLP143 T00671022
Pressure 29.96 in
Visibility 10.0 miles
Clouds Clear
Windchill 36 °F
Dew Point 28 °F
Humidity 53%
Rainfall 0.00 in
Snow Depth Not available.
6:58 AM 5:03 PM
Waning Crescent, 4% visible
METAR KPHP 061855Z AUTO 23015G22KT 10SM CLR 07/M02 A2991 RMK AO2 SLP143 T00671022

10-Day Weather Forecast

Almanac

Astronomy

Feb. 06, 2016 Rise Set
Actual Time
Civil Twilight
Nautical Twilight
Astronomical Twilight
Moon
Length of Visible Light
Length of Day
Tomorrow will be .
, % of the Moon is Illuminated

Today's Extremes

State Highs State Lows

Community

WunderPhotos

Upload Photos

1,891,037 photos uploaded!

WunderBlog® & News

Nearby

Air Quality

  Air Quality AQ Index Pollutant
Not available.

Snow Depth

Station Depth Elevation

Earthquake Activity

City Distance Mag. Time & Date
Minimum magnitude displayed is 2.5.

Coastal Water Temperatures

Place Temperature

Stations

Nearby Weather Stations

Station Location Temp. Windchill Dew Point Humidity Wind Precip. Elev Updated Type
                   

Watches & Warnings

High Wind Warning
Issued: 4:33 AM MST Feb. 6, 2016 – National Weather Service

... High Wind Warning remains in effect from 5 PM this afternoon
to 8 PM MST Sunday...

* timing... initial strong winds possible this evening... breezy
winds overnight... and the strongest winds Sunday morning
through Sunday evening.

* Winds... northwest 35 to 45 mph with gusts up to 70 mph.

* Impacts... the high winds can blow down large trees... and
damage roofs... small outbuildings... and signs. Sudden wind
gusts can cause drivers to lose control... especially in
lightweight or high profile vehicles. Strong winds can cause
blowing dust... reduced visibility... and flying debris.